createdAt,value
2023-04-24T00:02:22.069Z,12.41
2023-04-24T00:17:25.345Z,12.48
2023-04-24T00:32:28.108Z,12.67
2023-04-24T00:47:31.537Z,12.78
2023-04-24T01:02:35.621Z,12.78
2023-04-24T01:17:39.692Z,12.83
2023-04-24T01:32:45.533Z,12.85
2023-04-24T01:47:50.005Z,12.81
2023-04-24T02:02:53.256Z,12.79
2023-04-24T02:17:56.118Z,12.81
2023-04-24T02:32:59.156Z,12.83
2023-04-24T02:48:01.820Z,12.88
2023-04-24T03:03:04.797Z,12.84
2023-04-24T03:18:07.594Z,12.86
2023-04-24T03:33:10.864Z,12.83
2023-04-24T03:48:13.755Z,12.73
2023-04-24T04:03:17.306Z,12.68
2023-04-24T04:18:20.244Z,12.60
2023-04-24T04:33:23.365Z,12.52
2023-04-24T04:48:25.919Z,12.65
2023-04-24T05:03:28.774Z,13.72
2023-04-24T05:18:31.724Z,14.09
2023-04-24T05:33:34.449Z,16.93
2023-04-24T05:48:37.236Z,18.86
2023-04-24T06:03:40.559Z,16.90
2023-04-24T06:18:43.597Z,16.14
2023-04-24T06:33:46.745Z,16.67
2023-04-24T06:48:49.576Z,17.03
2023-04-24T07:03:52.229Z,16.77
2023-04-24T07:18:54.965Z,16.58
2023-04-24T07:33:59.199Z,16.85
2023-04-24T07:49:12.459Z,18.01
2023-04-24T08:04:16.812Z,19.22
2023-04-24T08:19:19.595Z,18.91
2023-04-24T08:34:22.894Z,18.39
2023-04-24T08:49:26.812Z,17.91
2023-04-24T09:04:31.202Z,18.33
2023-04-24T09:19:34.145Z,20.34
2023-04-24T09:34:36.778Z,21.23
2023-04-24T09:49:40.243Z,21.75
2023-04-24T10:04:55.030Z,22.13
2023-04-24T10:19:59.627Z,21.71
2023-04-24T10:35:02.264Z,21.39
2023-04-24T10:50:11.140Z,20.70
2023-04-24T11:05:16.030Z,20.84
2023-04-24T11:20:27.682Z,20.21
2023-04-24T11:35:36.762Z,19.70
2023-04-24T11:50:40.093Z,20.23
2023-04-24T12:05:43.206Z,20.96
2023-04-24T12:20:46.325Z,20.22
2023-04-24T12:35:54.238Z,19.50
2023-04-24T12:51:02.631Z,18.82
2023-04-24T13:06:06.684Z,18.55
2023-04-24T13:21:09.344Z,18.12
2023-04-24T13:36:12.191Z,17.46
2023-04-24T13:51:15.020Z,16.16
2023-04-24T14:06:18.577Z,15.10
2023-04-24T14:21:21.598Z,14.90
2023-04-24T14:36:24.299Z,15.10
2023-04-24T14:51:28.136Z,15.39
2023-04-24T15:06:32.525Z,15.37
2023-04-24T15:21:37.338Z,15.05
2023-04-24T15:36:39.978Z,14.75
2023-04-24T15:51:42.551Z,14.26
2023-04-24T16:06:45.258Z,13.85
2023-04-24T16:21:47.810Z,13.57
2023-04-24T16:36:50.390Z,13.41
2023-04-24T16:51:53.042Z,13.34
2023-04-24T17:06:55.947Z,13.17
2023-04-24T17:21:59.154Z,12.95
2023-04-24T17:37:02.316Z,12.78
2023-04-24T17:52:06.134Z,12.63
2023-04-24T18:07:08.821Z,12.46
2023-04-24T18:22:11.489Z,12.34
2023-04-24T18:37:14.612Z,12.26
2023-04-24T18:52:17.254Z,12.16
2023-04-24T19:07:20.699Z,12.15
2023-04-24T19:22:24.437Z,12.11
2023-04-24T19:37:27.260Z,12.06
2023-04-24T19:52:29.953Z,11.97
2023-04-24T20:07:32.646Z,11.87
2023-04-24T20:22:38.996Z,11.74
2023-04-24T20:37:42.404Z,11.62
2023-04-24T20:52:50.308Z,11.48
2023-04-24T21:07:56.055Z,11.36
2023-04-24T21:22:58.874Z,11.27
2023-04-24T21:38:02.097Z,11.17
2023-04-24T21:53:04.720Z,11.15
2023-04-24T22:08:07.431Z,11.16
2023-04-24T22:23:10.714Z,11.08
2023-04-24T22:38:13.364Z,10.88
2023-04-24T22:53:16.459Z,10.56
2023-04-24T23:08:19.153Z,10.20
2023-04-24T23:23:21.926Z,9.94
2023-04-24T23:38:24.523Z,9.62
2023-04-24T23:53:27.186Z,9.36
